createdAt,value
2018-08-27T00:00:18.242Z,1012.02
2018-08-27T00:00:59.013Z,1012
2018-08-27T00:01:39.748Z,1011.99
2018-08-27T00:02:20.627Z,1011.98
2018-08-27T00:03:01.399Z,1011.97
2018-08-27T00:03:42.158Z,1011.96
2018-08-27T00:04:22.948Z,1011.95
2018-08-27T00:05:03.786Z,1011.98
2018-08-27T00:05:44.617Z,1012
2018-08-27T00:06:25.392Z,1011.97
2018-08-27T00:07:06.214Z,1011.94
2018-08-27T00:07:46.974Z,1011.95
2018-08-27T00:08:27.809Z,1011.93
2018-08-27T00:09:08.616Z,1011.94
2018-08-27T00:09:49.380Z,1011.95
2018-08-27T00:10:30.157Z,1011.97
2018-08-27T00:11:10.944Z,1011.94
2018-08-27T00:11:51.798Z,1011.96
2018-08-27T00:12:32.507Z,1011.92
2018-08-27T00:13:13.215Z,1011.96
2018-08-27T00:13:53.934Z,1011.93
2018-08-27T00:14:34.686Z,1011.94
2018-08-27T00:15:15.521Z,1011.93
2018-08-27T00:15:56.365Z,1011.9
2018-08-27T00:16:37.187Z,1011.88
2018-08-27T00:17:17.965Z,1011.95
2018-08-27T00:17:58.729Z,1011.9
2018-08-27T00:18:39.585Z,1011.9
2018-08-27T00:19:20.309Z,1011.92
2018-08-27T00:20:01.057Z,1011.9
2018-08-27T00:20:41.827Z,1011.88
2018-08-27T00:21:22.659Z,1011.88
2018-08-27T00:22:03.470Z,1011.86
2018-08-27T00:22:44.225Z,1011.89
2018-08-27T00:23:24.980Z,1011.85
2018-08-27T00:24:05.837Z,1011.86
2018-08-27T00:24:46.606Z,1011.9
2018-08-27T00:25:27.383Z,1011.85
2018-08-27T00:26:08.107Z,1011.84
2018-08-27T00:26:48.884Z,1011.86
2018-08-27T00:27:29.685Z,1011.83
2018-08-27T00:28:10.483Z,1011.83
2018-08-27T00:28:51.219Z,1011.84
2018-08-27T00:29:31.978Z,1011.86
2018-08-27T00:30:12.833Z,1011.84
2018-08-27T00:30:53.650Z,1011.88
2018-08-27T00:31:34.459Z,1011.85
2018-08-27T00:32:15.232Z,1011.85
2018-08-27T00:32:55.964Z,1011.82
2018-08-27T00:33:36.681Z,1011.84
2018-08-27T00:34:17.413Z,1011.86
2018-08-27T00:34:58.247Z,1011.85
2018-08-27T00:35:38.950Z,1011.82
2018-08-27T00:36:19.738Z,1011.82
2018-08-27T00:37:00.562Z,1011.81
2018-08-27T00:37:41.340Z,1011.8
2018-08-27T00:38:22.140Z,1011.78
2018-08-27T00:39:02.908Z,1011.8
2018-08-27T00:39:43.685Z,1011.79
2018-08-27T00:40:24.508Z,1011.8
2018-08-27T00:41:05.271Z,1011.78
2018-08-27T00:41:45.999Z,1011.81
2018-08-27T00:42:26.741Z,1011.8
2018-08-27T00:43:07.503Z,1011.84
2018-08-27T00:43:48.293Z,1011.81
2018-08-27T00:44:28.996Z,1011.8
2018-08-27T00:45:09.728Z,1011.83
2018-08-27T00:45:50.554Z,1011.81
2018-08-27T00:46:31.340Z,1011.79
2018-08-27T00:47:12.116Z,1011.74
2018-08-27T00:47:52.819Z,1011.79
2018-08-27T00:48:33.562Z,1011.77
2018-08-27T00:49:14.295Z,1011.75
2018-08-27T00:49:55.062Z,1011.74
2018-08-27T00:50:35.957Z,1011.71
2018-08-27T00:51:16.792Z,1011.74
2018-08-27T00:51:57.477Z,1011.75
2018-08-27T00:52:38.260Z,1011.76
2018-08-27T00:53:19.040Z,1011.76
2018-08-27T00:53:59.825Z,1011.71
2018-08-27T00:54:40.533Z,1011.69
2018-08-27T00:55:21.257Z,1011.73
2018-08-27T00:56:02.017Z,1011.69
2018-08-27T00:56:42.863Z,1011.69
2018-08-27T00:57:23.640Z,1011.68
2018-08-27T00:58:04.386Z,1011.68
2018-08-27T00:58:45.142Z,1011.67
2018-08-27T00:59:25.889Z,1011.66
2018-08-27T01:00:06.612Z,1011.68
2018-08-27T01:00:47.428Z,1011.69
2018-08-27T01:01:28.200Z,1011.63
2018-08-27T01:02:08.965Z,1011.64
2018-08-27T01:02:49.754Z,1011.62
2018-08-27T01:03:30.556Z,1011.65
2018-08-27T01:04:11.402Z,1011.62
2018-08-27T01:04:52.176Z,1011.63
2018-08-27T01:05:32.983Z,1011.61
2018-08-27T01:06:13.742Z,1011.64
2018-08-27T01:06:54.472Z,1011.6
2018-08-27T01:07:35.314Z,1011.6
2018-08-27T01:08:16.125Z,1011.61
2018-08-27T01:08:56.914Z,1011.62
2018-08-27T01:09:37.643Z,1011.62
2018-08-27T01:10:18.430Z,1011.6
2018-08-27T01:10:59.350Z,1011.6
2018-08-27T01:11:40.116Z,1011.6
2018-08-27T01:12:20.850Z,1011.6
2018-08-27T01:13:01.562Z,1011.61
2018-08-27T01:13:42.377Z,1011.61
2018-08-27T01:14:23.181Z,1011.59
2018-08-27T01:15:03.925Z,1011.58
2018-08-27T01:15:44.717Z,1011.59
2018-08-27T01:16:25.514Z,1011.6
2018-08-27T01:17:06.287Z,1011.62
2018-08-27T01:17:47.082Z,1011.61
2018-08-27T01:18:27.837Z,1011.64
2018-08-27T01:19:08.682Z,1011.6
2018-08-27T01:19:49.436Z,1011.6
2018-08-27T01:20:30.166Z,1011.56
2018-08-27T01:21:10.888Z,1011.57
2018-08-27T01:21:51.658Z,1011.55
2018-08-27T01:22:32.550Z,1011.55
2018-08-27T01:23:13.342Z,1011.59
2018-08-27T01:23:54.181Z,1011.58
2018-08-27T01:24:34.911Z,1011.54
2018-08-27T01:25:15.652Z,1011.56
2018-08-27T01:25:56.372Z,1011.57
2018-08-27T01:26:37.128Z,1011.56
2018-08-27T01:27:17.973Z,1011.56
2018-08-27T01:27:58.732Z,1011.56
2018-08-27T01:28:39.534Z,1011.58
2018-08-27T01:29:20.390Z,1011.56
2018-08-27T01:30:01.189Z,1011.53
2018-08-27T01:30:41.995Z,1011.56
2018-08-27T01:31:22.680Z,1011.55
2018-08-27T01:32:03.406Z,1011.54
2018-08-27T01:32:44.182Z,1011.52
2018-08-27T01:33:25.011Z,1011.53
2018-08-27T01:34:05.881Z,1011.53
2018-08-27T01:34:46.657Z,1011.53
2018-08-27T01:35:27.386Z,1011.53
2018-08-27T01:36:08.164Z,1011.53
2018-08-27T01:36:48.973Z,1011.49
2018-08-27T01:37:29.706Z,1011.51
2018-08-27T01:38:10.477Z,1011.5
2018-08-27T01:38:51.225Z,1011.53
2018-08-27T01:39:31.990Z,1011.52
2018-08-27T01:40:12.805Z,1011.53
2018-08-27T01:40:53.617Z,1011.54
2018-08-27T01:41:34.387Z,1011.57
2018-08-27T01:42:15.123Z,1011.55
2018-08-27T01:42:55.824Z,1011.57
2018-08-27T01:43:36.576Z,1011.55
2018-08-27T01:44:17.377Z,1011.55
2018-08-27T01:44:58.096Z,1011.55
2018-08-27T01:45:38.802Z,1011.57
2018-08-27T01:46:19.619Z,1011.54
2018-08-27T01:47:00.487Z,1011.52
2018-08-27T01:47:41.282Z,1011.53
2018-08-27T01:48:22.006Z,1011.51
2018-08-27T01:49:02.797Z,1011.53
2018-08-27T01:49:43.581Z,1011.51
2018-08-27T01:50:24.338Z,1011.52
2018-08-27T01:51:05.061Z,1011.49
2018-08-27T01:51:45.799Z,1011.49
2018-08-27T01:52:26.613Z,1011.52
2018-08-27T01:53:07.402Z,1011.51
2018-08-27T01:53:48.108Z,1011.51
2018-08-27T01:54:28.935Z,1011.53
2018-08-27T01:55:09.708Z,1011.53
2018-08-27T01:55:50.527Z,1011.51
2018-08-27T01:56:31.318Z,1011.51
2018-08-27T01:57:12.054Z,1011.52
2018-08-27T01:57:52.752Z,1011.51
2018-08-27T01:58:33.530Z,1011.53
2018-08-27T01:59:14.354Z,1011.49
2018-08-27T01:59:55.177Z,1011.52
2018-08-27T02:00:35.984Z,1011.56
2018-08-27T02:01:16.724Z,1011.53
2018-08-27T02:01:57.490Z,1011.58
2018-08-27T02:02:38.327Z,1011.56
2018-08-27T02:03:19.125Z,1011.57
2018-08-27T02:03:59.837Z,1011.56
2018-08-27T02:04:40.566Z,1011.6
2018-08-27T02:05:21.321Z,1011.6
2018-08-27T02:06:02.105Z,1011.59
2018-08-27T02:06:42.894Z,1011.64
2018-08-27T02:07:23.687Z,1011.59
2018-08-27T02:08:04.477Z,1011.62
2018-08-27T02:08:45.205Z,1011.59
2018-08-27T02:09:25.930Z,1011.56
2018-08-27T02:10:06.776Z,1011.56
2018-08-27T02:10:47.517Z,1011.56
2018-08-27T02:11:28.271Z,1011.56
2018-08-27T02:12:09.135Z,1011.58
2018-08-27T02:12:49.907Z,1011.55
2018-08-27T02:13:30.779Z,1011.55
2018-08-27T02:14:11.529Z,1011.54
2018-08-27T02:14:52.267Z,1011.53
2018-08-27T02:15:33.038Z,1011.54
2018-08-27T02:16:13.807Z,1011.57
2018-08-27T02:16:54.618Z,1011.56
2018-08-27T02:17:35.437Z,1011.55
2018-08-27T02:18:16.260Z,1011.54
2018-08-27T02:18:56.994Z,1011.55
2018-08-27T02:19:37.823Z,1011.55
2018-08-27T02:20:18.595Z,1011.56
2018-08-27T02:20:59.418Z,1011.57
2018-08-27T02:21:40.118Z,1011.57
2018-08-27T02:22:20.846Z,1011.55
2018-08-27T02:23:01.658Z,1011.56
2018-08-27T02:23:42.461Z,1011.55
2018-08-27T02:24:23.199Z,1011.55
2018-08-27T02:25:04.006Z,1011.55
2018-08-27T02:25:44.819Z,1011.49
2018-08-27T02:26:25.646Z,1011.53
2018-08-27T02:27:06.441Z,1011.48
2018-08-27T02:27:47.141Z,1011.49
2018-08-27T02:28:27.977Z,1011.52
2018-08-27T02:29:08.765Z,1011.51
2018-08-27T02:29:49.506Z,1011.51
2018-08-27T02:30:30.271Z,1011.55
2018-08-27T02:31:10.982Z,1011.53
2018-08-27T02:31:51.806Z,1011.5
2018-08-27T02:32:32.627Z,1011.53
2018-08-27T02:33:13.444Z,1011.53
2018-08-27T02:33:54.158Z,1011.53
2018-08-27T02:34:34.905Z,1011.53
2018-08-27T02:35:15.671Z,1011.58
2018-08-27T02:35:56.485Z,1011.58
2018-08-27T02:36:37.309Z,1011.58
2018-08-27T02:37:18.034Z,1011.59
2018-08-27T02:37:58.855Z,1011.61
2018-08-27T02:38:39.714Z,1011.61
2018-08-27T02:39:20.582Z,1011.61
2018-08-27T02:40:01.327Z,1011.62
2018-08-27T02:40:42.091Z,1011.64
2018-08-27T02:41:22.849Z,1011.6
2018-08-27T02:42:03.688Z,1011.64
2018-08-27T02:42:44.404Z,1011.62
2018-08-27T02:43:25.153Z,1011.6
2018-08-27T02:44:05.871Z,1011.6
2018-08-27T02:44:46.655Z,1011.59
2018-08-27T02:45:27.502Z,1011.6
2018-08-27T02:46:08.194Z,1011.6
2018-08-27T02:46:48.964Z,1011.6
2018-08-27T02:47:29.785Z,1011.61
2018-08-27T02:48:10.604Z,1011.62
2018-08-27T02:48:51.330Z,1011.59
2018-08-27T02:49:32.025Z,1011.61
2018-08-27T02:50:12.770Z,1011.59
2018-08-27T02:50:53.526Z,1011.63
2018-08-27T02:52:48.817Z,1011.59
2018-08-27T02:53:29.613Z,1011.6
2018-08-27T02:54:10.349Z,1011.61
2018-08-27T02:54:51.145Z,1011.6
2018-08-27T02:55:31.928Z,1011.58
2018-08-27T02:56:12.668Z,1011.58
2018-08-27T02:56:53.413Z,1011.6
2018-08-27T02:57:34.164Z,1011.57
2018-08-27T02:58:14.982Z,1011.59
2018-08-27T02:58:55.761Z,1011.61
2018-08-27T02:59:36.497Z,1011.59
2018-08-27T03:00:17.309Z,1011.62
2018-08-27T03:00:58.116Z,1011.59
2018-08-27T03:01:38.930Z,1011.64
2018-08-27T03:02:19.685Z,1011.63
2018-08-27T03:03:00.388Z,1011.65
2018-08-27T03:03:41.220Z,1011.64
2018-08-27T03:04:21.968Z,1011.63
2018-08-27T03:05:02.708Z,1011.66
2018-08-27T03:05:43.469Z,1011.67
2018-08-27T03:06:24.175Z,1011.67
2018-08-27T03:07:04.988Z,1011.68
2018-08-27T03:07:45.814Z,1011.65
2018-08-27T03:08:26.586Z,1011.71
2018-08-27T03:09:07.305Z,1011.68
2018-08-27T03:09:48.070Z,1011.7
2018-08-27T03:10:28.802Z,1011.7
2018-08-27T03:11:09.687Z,1011.64
2018-08-27T03:11:50.458Z,1011.7
2018-08-27T03:12:31.196Z,1011.7
2018-08-27T03:13:12.023Z,1011.66
2018-08-27T03:13:52.802Z,1011.68
2018-08-27T03:14:33.626Z,1011.7
2018-08-27T03:15:14.371Z,1011.68
2018-08-27T03:15:55.107Z,1011.64
2018-08-27T03:16:35.958Z,1011.67
2018-08-27T03:17:16.721Z,1011.66
2018-08-27T03:17:57.418Z,1011.65
2018-08-27T03:18:38.160Z,1011.64
2018-08-27T03:19:18.873Z,1011.67
2018-08-27T03:19:59.692Z,1011.68
2018-08-27T03:20:40.496Z,1011.68
2018-08-27T03:21:21.209Z,1011.69
2018-08-27T03:22:01.996Z,1011.7
2018-08-27T03:22:42.828Z,1011.67
2018-08-27T03:23:23.628Z,1011.66
2018-08-27T03:24:04.390Z,1011.67
2018-08-27T03:24:45.070Z,1011.7
2018-08-27T03:25:25.807Z,1011.72
2018-08-27T03:26:06.561Z,1011.71
2018-08-27T03:26:47.436Z,1011.67
2018-08-27T03:27:28.241Z,1011.71
2018-08-27T03:28:09.002Z,1011.69
2018-08-27T03:28:49.717Z,1011.66
2018-08-27T03:29:30.465Z,1011.65
2018-08-27T03:30:11.307Z,1011.68
2018-08-27T03:30:52.067Z,1011.67
2018-08-27T03:31:32.838Z,1011.65
2018-08-27T03:32:13.576Z,1011.67
2018-08-27T03:32:54.377Z,1011.69
2018-08-27T03:33:35.151Z,1011.68
2018-08-27T03:34:15.943Z,1011.68
2018-08-27T03:34:56.753Z,1011.67
2018-08-27T03:35:37.585Z,1011.65
2018-08-27T03:36:18.398Z,1011.68
2018-08-27T03:36:59.124Z,1011.67
2018-08-27T03:37:39.821Z,1011.68
2018-08-27T03:38:20.607Z,1011.68
2018-08-27T03:39:01.420Z,1011.69
2018-08-27T03:39:42.137Z,1011.67
2018-08-27T03:40:22.840Z,1011.66
2018-08-27T03:41:03.550Z,1011.65
2018-08-27T03:41:44.357Z,1011.68
2018-08-27T03:42:25.134Z,1011.67
2018-08-27T03:43:05.923Z,1011.66
2018-08-27T03:43:46.649Z,1011.68
2018-08-27T03:44:27.439Z,1011.7
2018-08-27T03:45:08.105Z,1011.67
2018-08-27T03:45:48.832Z,1011.65
2018-08-27T03:46:29.642Z,1011.67
2018-08-27T03:47:10.358Z,1011.68
2018-08-27T03:47:51.132Z,1011.69
2018-08-27T03:48:32.015Z,1011.65
2018-08-27T03:49:12.743Z,1011.64
2018-08-27T03:49:53.504Z,1011.66
2018-08-27T03:50:34.266Z,1011.66
2018-08-27T03:51:14.993Z,1011.69
2018-08-27T03:51:55.730Z,1011.69
2018-08-27T03:52:36.583Z,1011.66
2018-08-27T03:53:17.324Z,1011.7
2018-08-27T03:53:58.145Z,1011.7
2018-08-27T03:54:38.944Z,1011.7
2018-08-27T03:55:19.713Z,1011.68
2018-08-27T03:56:00.529Z,1011.7
2018-08-27T03:56:41.284Z,1011.69
2018-08-27T03:57:22.008Z,1011.69
2018-08-27T03:58:02.715Z,1011.7
2018-08-27T03:58:43.426Z,1011.7
2018-08-27T03:59:24.242Z,1011.71
2018-08-27T04:00:05.039Z,1011.68
2018-08-27T04:00:45.834Z,1011.71
2018-08-27T04:01:26.571Z,1011.71
2018-08-27T04:02:07.351Z,1011.74
2018-08-27T04:02:48.076Z,1011.74
2018-08-27T04:03:28.865Z,1011.71
2018-08-27T04:04:09.652Z,1011.69
2018-08-27T04:04:50.378Z,1011.71
2018-08-27T04:05:31.185Z,1011.71
2018-08-27T04:06:11.926Z,1011.7
2018-08-27T04:06:52.763Z,1011.7
2018-08-27T04:07:33.497Z,1011.7
2018-08-27T04:08:14.219Z,1011.71
2018-08-27T04:08:55.008Z,1011.66
2018-08-27T04:09:35.739Z,1011.72
2018-08-27T04:10:16.468Z,1011.69
2018-08-27T04:10:57.227Z,1011.69
2018-08-27T04:11:37.938Z,1011.68
2018-08-27T04:12:18.772Z,1011.72
2018-08-27T04:12:59.499Z,1011.7
2018-08-27T04:13:40.239Z,1011.73
2018-08-27T04:14:21.036Z,1011.75
2018-08-27T04:15:01.822Z,1011.7
2018-08-27T04:15:42.633Z,1011.74
2018-08-27T04:16:23.357Z,1011.77
2018-08-27T04:17:04.067Z,1011.75
2018-08-27T04:17:44.809Z,1011.79
2018-08-27T04:18:25.591Z,1011.78
2018-08-27T04:19:06.434Z,1011.75
2018-08-27T04:19:47.280Z,1011.78
2018-08-27T04:20:28.052Z,1011.78
2018-08-27T04:21:08.787Z,1011.78
2018-08-27T04:21:49.596Z,1011.78
2018-08-27T04:22:30.388Z,1011.77
2018-08-27T04:23:11.079Z,1011.77
2018-08-27T04:23:51.857Z,1011.81
2018-08-27T04:24:32.595Z,1011.81
2018-08-27T04:25:13.396Z,1011.83
2018-08-27T04:25:54.211Z,1011.81
2018-08-27T04:26:35.036Z,1011.82
2018-08-27T04:27:15.853Z,1011.85
2018-08-27T04:27:56.573Z,1011.83
2018-08-27T04:28:37.323Z,1011.82
2018-08-27T04:29:18.078Z,1011.86
2018-08-27T04:29:58.911Z,1011.84
2018-08-27T04:30:39.695Z,1011.85
2018-08-27T04:31:20.431Z,1011.83
2018-08-27T04:32:01.242Z,1011.83
2018-08-27T04:32:42.059Z,1011.82
2018-08-27T04:33:22.908Z,1011.87
2018-08-27T04:34:03.623Z,1011.83
2018-08-27T04:34:44.342Z,1011.87
2018-08-27T04:35:25.028Z,1011.91
2018-08-27T04:36:05.823Z,1011.87
2018-08-27T04:36:46.617Z,1011.88
2018-08-27T04:37:27.410Z,1011.9
2018-08-27T04:38:08.178Z,1011.89
2018-08-27T04:38:48.905Z,1011.92
2018-08-27T04:39:29.701Z,1011.9
2018-08-27T04:40:10.500Z,1011.9
2018-08-27T04:40:51.227Z,1011.93
2018-08-27T04:41:31.985Z,1011.9
2018-08-27T04:42:12.708Z,1011.91
2018-08-27T04:42:53.520Z,1011.91
2018-08-27T04:43:34.327Z,1011.9
2018-08-27T04:44:15.066Z,1011.88
2018-08-27T04:44:55.829Z,1011.87
2018-08-27T04:45:36.649Z,1011.89
2018-08-27T04:46:17.463Z,1011.87
2018-08-27T04:46:58.282Z,1011.89
2018-08-27T04:47:38.973Z,1011.86
2018-08-27T04:48:19.776Z,1011.89
2018-08-27T04:49:00.567Z,1011.87
2018-08-27T04:49:41.264Z,1011.89
2018-08-27T04:50:21.989Z,1011.9
2018-08-27T04:51:02.741Z,1011.88
2018-08-27T04:51:43.548Z,1011.89
2018-08-27T04:52:24.331Z,1011.88
2018-08-27T04:53:05.118Z,1011.85
2018-08-27T04:53:45.825Z,1011.86
2018-08-27T04:54:26.570Z,1011.87
2018-08-27T04:55:07.341Z,1011.85
2018-08-27T04:55:48.142Z,1011.85
2018-08-27T04:56:28.944Z,1011.84
2018-08-27T04:57:09.710Z,1011.87
2018-08-27T04:57:50.618Z,1011.87
2018-08-27T04:58:31.443Z,1011.84
2018-08-27T04:59:12.257Z,1011.89
2018-08-27T04:59:53.050Z,1011.9
2018-08-27T05:00:33.825Z,1011.9
2018-08-27T05:01:14.587Z,1011.91
2018-08-27T05:01:55.339Z,1011.92
2018-08-27T05:02:36.141Z,1011.92
2018-08-27T05:03:16.911Z,1011.92
2018-08-27T05:03:57.744Z,1011.92
2018-08-27T05:04:38.464Z,1011.94
2018-08-27T05:05:19.236Z,1011.93
2018-08-27T05:06:00.064Z,1011.96
2018-08-27T05:06:40.823Z,1011.96
2018-08-27T05:07:21.577Z,1011.99
2018-08-27T05:08:02.301Z,1012.02
2018-08-27T05:08:43.093Z,1011.99
2018-08-27T05:09:23.899Z,1012
2018-08-27T05:10:04.668Z,1012.04
2018-08-27T05:10:45.474Z,1012.03
2018-08-27T05:11:26.211Z,1012.02
2018-08-27T05:12:06.943Z,1012.02
2018-08-27T05:12:47.661Z,1012.01
2018-08-27T05:13:28.474Z,1012.01
2018-08-27T05:14:09.246Z,1012.05
2018-08-27T05:14:49.996Z,1012
2018-08-27T05:15:30.764Z,1012.03
2018-08-27T05:16:11.615Z,1012.04
2018-08-27T05:16:52.433Z,1012.04
2018-08-27T05:17:33.140Z,1012.06
2018-08-27T05:18:13.901Z,1012.06
2018-08-27T05:18:54.712Z,1012.1
2018-08-27T05:19:35.431Z,1012.1
2018-08-27T05:20:16.302Z,1012.09
2018-08-27T05:20:57.016Z,1012.09
2018-08-27T05:21:37.780Z,1012.06
2018-08-27T05:22:18.667Z,1012.09
2018-08-27T05:22:59.396Z,1012.11
2018-08-27T05:23:40.164Z,1012.1
2018-08-27T05:24:20.946Z,1012.15
2018-08-27T05:25:01.742Z,1012.14
2018-08-27T05:25:42.568Z,1012.14
2018-08-27T05:26:23.267Z,1012.15
2018-08-27T05:27:04.033Z,1012.16
2018-08-27T05:27:44.788Z,1012.17
2018-08-27T05:28:25.573Z,1012.18
2018-08-27T05:29:06.428Z,1012.17
2018-08-27T05:29:47.273Z,1012.26
2018-08-27T05:30:27.983Z,1012.25
2018-08-27T05:31:08.798Z,1012.29
2018-08-27T05:31:49.568Z,1012.23
2018-08-27T05:32:30.321Z,1012.2
2018-08-27T05:33:11.027Z,1012.22
2018-08-27T05:33:51.797Z,1012.23
2018-08-27T05:34:32.534Z,1012.23
2018-08-27T05:35:13.346Z,1012.27
2018-08-27T05:35:54.115Z,1012.25
2018-08-27T05:36:34.834Z,1012.3
2018-08-27T05:37:15.667Z,1012.27
2018-08-27T05:37:56.448Z,1012.29
2018-08-27T05:38:37.306Z,1012.31
2018-08-27T05:39:18.018Z,1012.3
2018-08-27T05:39:58.786Z,1012.35
2018-08-27T05:40:39.613Z,1012.33
2018-08-27T05:41:20.388Z,1012.32
2018-08-27T05:42:01.132Z,1012.31
2018-08-27T05:42:41.857Z,1012.33
2018-08-27T05:43:22.644Z,1012.32
2018-08-27T05:44:03.472Z,1012.37
2018-08-27T05:44:44.286Z,1012.33
2018-08-27T05:45:25.037Z,1012.37
2018-08-27T05:46:05.786Z,1012.38
2018-08-27T05:46:46.498Z,1012.37
2018-08-27T05:47:27.244Z,1012.37
2018-08-27T05:48:08.074Z,1012.39
2018-08-27T05:48:48.807Z,1012.43
2018-08-27T05:49:29.555Z,1012.43
2018-08-27T05:50:10.350Z,1012.45
2018-08-27T05:50:51.151Z,1012.43
2018-08-27T05:51:31.974Z,1012.41
2018-08-27T05:52:12.803Z,1012.45
2018-08-27T05:52:53.496Z,1012.49
2018-08-27T05:53:34.299Z,1012.44
2018-08-27T05:54:15.050Z,1012.45
2018-08-27T05:54:55.790Z,1012.47
2018-08-27T05:55:36.475Z,1012.44
2018-08-27T05:56:17.274Z,1012.48
2018-08-27T05:56:58.102Z,1012.51
2018-08-27T05:57:38.802Z,1012.5
2018-08-27T05:58:19.540Z,1012.49
2018-08-27T05:59:00.377Z,1012.51
2018-08-27T05:59:41.165Z,1012.53
2018-08-27T06:00:22.029Z,1012.5
2018-08-27T06:01:02.758Z,1012.51
2018-08-27T06:01:43.523Z,1012.51
2018-08-27T06:02:24.319Z,1012.57
2018-08-27T06:03:05.078Z,1012.59
2018-08-27T06:03:45.911Z,1012.54
2018-08-27T06:04:26.711Z,1012.6
2018-08-27T06:05:07.464Z,1012.55
2018-08-27T06:05:48.218Z,1012.59
2018-08-27T06:06:29.006Z,1012.56
2018-08-27T06:07:09.764Z,1012.57
2018-08-27T06:07:50.520Z,1012.57
2018-08-27T06:08:31.243Z,1012.56
2018-08-27T06:09:12.013Z,1012.59
2018-08-27T06:09:52.847Z,1012.59
2018-08-27T06:10:33.681Z,1012.59
2018-08-27T06:11:14.492Z,1012.59
2018-08-27T06:11:55.205Z,1012.6
2018-08-27T06:12:35.936Z,1012.58
2018-08-27T06:13:16.652Z,1012.6
2018-08-27T06:13:57.433Z,1012.6
2018-08-27T06:14:38.223Z,1012.58
2018-08-27T06:15:18.961Z,1012.61
2018-08-27T06:15:59.717Z,1012.58
2018-08-27T06:16:40.667Z,1012.58
2018-08-27T06:17:21.325Z,1012.61
2018-08-27T06:18:02.097Z,1012.59
2018-08-27T06:18:42.819Z,1012.6
2018-08-27T06:19:23.595Z,1012.6
2018-08-27T06:20:04.369Z,1012.61
2018-08-27T06:20:45.209Z,1012.64
2018-08-27T06:21:25.986Z,1012.62
2018-08-27T06:22:06.863Z,1012.62
2018-08-27T06:22:47.549Z,1012.62
2018-08-27T06:23:28.376Z,1012.65
2018-08-27T06:24:09.216Z,1012.67
2018-08-27T06:24:49.966Z,1012.68
2018-08-27T06:25:30.761Z,1012.65
2018-08-27T06:26:11.561Z,1012.68
2018-08-27T06:26:52.335Z,1012.67
2018-08-27T06:27:33.159Z,1012.63
2018-08-27T06:28:13.910Z,1012.69
2018-08-27T06:28:54.675Z,1012.65
2018-08-27T06:29:35.486Z,1012.67
2018-08-27T06:30:16.302Z,1012.66
2018-08-27T06:30:57.159Z,1012.64
2018-08-27T06:31:37.870Z,1012.66
2018-08-27T06:32:18.642Z,1012.67
2018-08-27T06:32:59.470Z,1012.67
2018-08-27T06:33:40.167Z,1012.7
2018-08-27T06:34:20.942Z,1012.67
2018-08-27T06:35:01.724Z,1012.67
2018-08-27T06:35:42.428Z,1012.71
2018-08-27T06:36:23.253Z,1012.7
2018-08-27T06:37:04.142Z,1012.69
2018-08-27T06:37:44.826Z,1012.69
2018-08-27T06:38:25.533Z,1012.69
2018-08-27T06:39:06.302Z,1012.67
2018-08-27T06:39:47.080Z,1012.69
2018-08-27T06:40:27.940Z,1012.7
2018-08-27T06:41:08.654Z,1012.71
2018-08-27T06:41:49.414Z,1012.74
2018-08-27T06:42:30.235Z,1012.7
2018-08-27T06:43:11.021Z,1012.68
2018-08-27T06:43:51.812Z,1012.69
2018-08-27T06:44:32.602Z,1012.72
2018-08-27T06:45:13.291Z,1012.76
2018-08-27T06:45:54.060Z,1012.73
2018-08-27T06:46:34.908Z,1012.75
2018-08-27T06:47:15.708Z,1012.76
2018-08-27T06:47:56.555Z,1012.76
2018-08-27T06:48:37.322Z,1012.79
2018-08-27T06:49:18.037Z,1012.8
2018-08-27T06:49:58.867Z,1012.8
2018-08-27T06:50:39.624Z,1012.79
2018-08-27T06:51:20.332Z,1012.78
2018-08-27T06:52:01.091Z,1012.81
2018-08-27T06:52:41.803Z,1012.79
2018-08-27T06:53:22.648Z,1012.78
2018-08-27T06:54:03.457Z,1012.8
2018-08-27T06:54:44.260Z,1012.81
2018-08-27T06:55:25.009Z,1012.83
2018-08-27T06:56:05.733Z,1012.84
2018-08-27T06:56:46.503Z,1012.85
2018-08-27T06:57:27.357Z,1012.85
2018-08-27T06:58:08.135Z,1012.88
2018-08-27T06:58:48.862Z,1012.9
2018-08-27T06:59:29.675Z,1012.9
2018-08-27T07:00:10.510Z,1012.89
2018-08-27T07:00:51.345Z,1012.88
2018-08-27T07:01:32.108Z,1012.89
2018-08-27T07:02:12.856Z,1012.85
2018-08-27T07:02:53.746Z,1012.83
2018-08-27T07:03:34.499Z,1012.8
2018-08-27T07:04:15.202Z,1012.86
2018-08-27T07:04:55.937Z,1012.84
2018-08-27T07:05:36.655Z,1012.83
2018-08-27T07:06:17.461Z,1012.87
2018-08-27T07:06:58.225Z,1012.86
2018-08-27T07:07:39.011Z,1012.89
2018-08-27T07:08:19.798Z,1012.89
2018-08-27T07:09:00.608Z,1012.9
2018-08-27T07:09:41.531Z,1012.88
2018-08-27T07:10:22.291Z,1012.9
2018-08-27T07:11:03.012Z,1012.91
2018-08-27T07:11:43.810Z,1012.91
2018-08-27T07:12:24.567Z,1012.9
2018-08-27T07:13:05.410Z,1012.91
2018-08-27T07:13:46.219Z,1012.92
2018-08-27T07:14:26.993Z,1012.93
2018-08-27T07:15:07.727Z,1012.9
2018-08-27T07:15:48.508Z,1012.92
2018-08-27T07:16:29.296Z,1012.96
2018-08-27T07:17:10.026Z,1012.95
2018-08-27T07:17:50.768Z,1012.97
2018-08-27T07:18:31.549Z,1012.94
2018-08-27T07:19:12.360Z,1012.97
2018-08-27T07:19:53.147Z,1012.96
2018-08-27T07:20:33.944Z,1012.97
2018-08-27T07:21:14.698Z,1012.95
2018-08-27T07:21:55.490Z,1012.95
2018-08-27T07:22:36.209Z,1012.91
2018-08-27T07:23:16.980Z,1012.95
2018-08-27T07:23:57.771Z,1012.94
2018-08-27T07:24:38.535Z,1012.96
2018-08-27T07:25:19.336Z,1012.96
2018-08-27T07:26:00.087Z,1012.96
2018-08-27T07:26:40.881Z,1012.97
2018-08-27T07:27:21.709Z,1012.94
2018-08-27T07:28:02.383Z,1012.96
2018-08-27T07:28:43.124Z,1013
2018-08-27T07:29:23.879Z,1012.98
2018-08-27T07:30:04.742Z,1013.01
2018-08-27T07:30:45.511Z,1012.96
2018-08-27T07:31:26.338Z,1012.98
2018-08-27T07:32:07.105Z,1012.99
2018-08-27T07:32:47.835Z,1013.01
2018-08-27T07:33:28.676Z,1012.99
2018-08-27T07:34:09.418Z,1012.98
2018-08-27T07:34:50.140Z,1013.01
2018-08-27T07:35:30.893Z,1013.02
2018-08-27T07:36:11.643Z,1013.04
2018-08-27T07:36:52.467Z,1013.02
2018-08-27T07:37:33.224Z,1013.01
2018-08-27T07:38:14.005Z,1013.03
2018-08-27T07:38:54.859Z,1013.03
2018-08-27T07:39:35.619Z,1013.05
2018-08-27T07:40:16.404Z,1013.06
2018-08-27T07:40:57.156Z,1013.07
2018-08-27T07:41:37.891Z,1013.09
2018-08-27T07:42:18.714Z,1013.09
2018-08-27T07:42:59.439Z,1013.1
2018-08-27T07:43:40.296Z,1013.13
2018-08-27T07:44:20.972Z,1013.13
2018-08-27T07:45:01.769Z,1013.13
2018-08-27T07:45:42.585Z,1013.16
2018-08-27T07:46:23.397Z,1013.18
2018-08-27T07:47:04.137Z,1013.17
2018-08-27T07:47:44.879Z,1013.16
2018-08-27T07:48:25.616Z,1013.15
2018-08-27T07:49:06.343Z,1013.16
2018-08-27T07:49:47.191Z,1013.18
2018-08-27T07:50:28.001Z,1013.18
2018-08-27T07:51:08.709Z,1013.16
2018-08-27T07:51:49.448Z,1013.18
2018-08-27T07:52:30.205Z,1013.16
2018-08-27T07:53:11.053Z,1013.18
2018-08-27T07:53:51.797Z,1013.15
2018-08-27T07:54:32.520Z,1013.2
2018-08-27T07:55:13.298Z,1013.17
2018-08-27T07:55:54.123Z,1013.2
2018-08-27T07:56:34.977Z,1013.19
2018-08-27T07:57:15.773Z,1013.19
2018-08-27T07:57:56.463Z,1013.19
2018-08-27T07:58:37.456Z,1013.19
2018-08-27T07:59:18.062Z,1013.18
2018-08-27T07:59:58.874Z,1013.17
2018-08-27T08:00:39.632Z,1013.21
2018-08-27T08:01:20.484Z,1013.2
2018-08-27T08:02:01.350Z,1013.21
2018-08-27T08:02:42.097Z,1013.2
2018-08-27T08:03:22.853Z,1013.18
2018-08-27T08:04:03.689Z,1013.2
2018-08-27T08:04:44.600Z,1013.21
2018-08-27T08:05:25.277Z,1013.2
2018-08-27T08:06:06.037Z,1013.23
2018-08-27T08:06:46.741Z,1013.23
2018-08-27T08:07:27.453Z,1013.21
2018-08-27T08:08:08.281Z,1013.19
2018-08-27T08:08:49.110Z,1013.22
2018-08-27T08:09:29.933Z,1013.22
2018-08-27T08:10:10.745Z,1013.22
2018-08-27T08:10:51.503Z,1013.21
2018-08-27T08:11:32.239Z,1013.19
2018-08-27T08:12:13.087Z,1013.23
2018-08-27T08:12:53.806Z,1013.21
2018-08-27T08:13:34.638Z,1013.22
2018-08-27T08:14:15.368Z,1013.21
2018-08-27T08:14:56.245Z,1013.21
2018-08-27T08:15:37.110Z,1013.19
2018-08-27T08:16:17.956Z,1013.22
2018-08-27T08:16:58.828Z,1013.22